Logo AVAMET
Benvolgut visitant, si us plau, ingressa Recuperar contrasenya

Bolulla

Dades diàries. Acumulats / Últims 30 dies disponibles

Data Temperatura (°C) Humitat rel. (%) Pressió rel. (hPa) Vent (km/h) Precipitació
Mínima Mitjana Màxima Amplitud
tèrmica
Mínima Mitjana Màxima Mínima Mitjana Màxima Predom. Mitjana Ràfega
màxima
Total
(mm)
Índex-n
Mínima Mitjana Màxima Mínima Mitjana Màxima n
0 a 1
P0 max
mm 5'
Dades mensuals acumulades fins l'últim dia disponible
06/2019 13,6 15,6 20,1 20,7 22,2 25,8 30,4 16,8 23 59 90 0 983 987   8,2 42,6 0,5
Dades anuals acumulades fins l'últim dia disponible
2019 3,2 10,1 20,1 14,3 10,7 18,8 30,4 27,2 23 65 97 0 1.004 1.032   8,3 79,6 122,9
Últims 30 dies disponibles
24-06-2019 20,1     24,9     30,4 10,3 35 51 84 0 983 987 SE 8,1 38,9 0,0
23-06-2019 17,7     22,5     27,3 9,6 52 58 64 987 987 987 O 7,2 22,2 0,0
20-06-2019 17,7     21,4     27,3 9,6 51 64 81 987 987 987 OSO 6,3 22,2 0,0
19-06-2019 16,1     22,7     28,2 12,1 38 60 88 0 980 987 OSO 7,8 24,4 0,0
18-06-2019 15,3     21,1     25,8 10,5 51 62 86 0 983 987 OSO 8,6 30,5 0,0
17-06-2019 16,3     21,2     26,7 10,4 41 58 72 0 980 987 OSO 8,9 31,5 0,0
16-06-2019 17,0     21,2     24,8 7,8 47 62 75 987 987 987 S 9,0 31,6 0,0
15-06-2019 16,6     21,5     26,1 9,5 34 56 80 987 987 987 SSO 6,9 27,8 0,0
14-06-2019 14,2     19,5     22,2 8,0 68 74 77 987 987 987 NNO 5,5 30,5 0,0
12-06-2019 14,2     19,6     22,2 8,0 50 60 73 0 980 987 SE 10,3 30,5 0,0
11-06-2019 14,5     16,0     24,8 10,3 74 79 85 987 987 987 ESE 9,9 35,9 0,5
06-06-2019 14,8     19,6     24,8 10,0 35 46 64 0 981 987 OSO 8,6 26,3 0,0
05-06-2019 14,8     21,1     27,0 12,2 23 57 90 987 987 987 ONO 8,8 42,6 0,0
04-06-2019 13,8     20,1     26,6 12,8 49 71 85 0 983 987 OSO 7,4 26,3 0,0
03-06-2019 14,2     20,2     25,9 11,7 36 56 78 0 973 987 OSO 7,8 24,1 0,0
02-06-2019 14,4     19,8     25,3 10,9 33 48 61 0 980 987 OSO 9,5 28,1 0,0
01-06-2019 13,6     18,8     23,9 10,3 34 49 69 0 983 987 OSO 9,1 24,1 0,0
31-05-2019 12,5     18,1     23,0 10,5 45 65 81 0 973 987 OSO 8,5 29,8 0,0
30-05-2019 12,3     17,1     22,1 9,8 51 69 87 0 983 987 SO 8,9 30,5 0,0
29-05-2019 13,4     17,3     22,0 8,6 37 58 82 0 980 987 SO 8,3 42,6 0,0
28-05-2019 15,0     19,0     24,8 9,8 49 71 87 0 983 987 SO 8,2 33,5 0,0
27-05-2019 14,2     18,9     23,6 9,4 53 70 87 987 987 987 SO 8,1 24,4 0,0
26-05-2019 13,3     17,9     22,8 9,5 50 69 81 0 983 987 OSO 8,2 29,6 0,0
25-05-2019 14,3     16,7     19,6 5,3 59 71 87 0 983 987 OSO 9,7 54,2 1,1
24-05-2019 15,4     17,4     19,6 4,2 48 67 85 0 980 987 S 7,6 30,5 1,1 0,10
23-05-2019 13,6     19,7     26,6 13,0 29 56 84 0 980 987 OSO 9,9 38,9 0,0
22-05-2019 13,5     18,1     22,9 9,4 52 73 90 0 983 987 OSO 8,2 25,9 0,0
21-05-2019 13,3     16,8     21,6 8,3 49 78 90 0 976 987 O 6,5 24,1 0,2
20-05-2019 11,8     16,2     20,3 8,5 48 71 87 0 983 987 OSO 7,9 24,4 0,0
19-05-2019 10,9     15,3     19,1 8,2 52 75 88 0 973 987 SO 7,5 25,9 0,0
Últims 13 mesos disponibles
05/2019 9,8 13,2 18,7 17,4 18,0 22,1 26,9 17,1 56 70 84 962 984 1.001 OSO 8,1 54,2 7,1
04/2019 7,4 10,7 14,2 14,5 14,1 18,5 26,2 18,8 43 70 91 978 995 1.001 OSO 8,3 79,6
03/2019 6,8 9,0 12,2 13,4 12,2 18,0 26,4 19,6 40 61 85 991 1.014 1.028 O 8,2 56,1 44,0
02/2019 4,1 7,2 10,7 11,7 11,8 16,5 20,7 16,6 39 62 80 996 1.023 1.031 O 8,4 72,9 0,3
01/2019 3,2 7,1 11,3 10,5 10,7 14,9 19,7 16,5 43 64 85 1.003 1.017 1.029 ONO 8,7 75,9 15,7
12/2018 6,4 8,8 11,8 12,4 12,4 17,3 21,2 14,8 51 72 89 1.008 1.023 1.030 ONO 7,0 68,5 43,1
11/2018 7,5 11,0 16,9 14,0 13,4 17,6 21,8 14,3 56 73 89 999 1.014 1.021 O 7,5 63,3 146,0
10/2018 8,2 14,6 18,0 17,8 14,6 21,9 26,2 18,0 47 74 84 998 1.013 1.024 7,8 70,3 107,8
09/2018 14,6 19,9 22,8 23,2 23,6 27,5 31,3 16,7 65 77 86 1.011 1.018 1.026 7,3 48,1 102,1
08/2018 19,6 22,1 25,6 25,8 25,1 30,1 35,3 15,7 48 70 89 1.012 1.015 1.020 7,2 39,6 19,8
07/2018 18,3 21,4 27,2 26,3 28,6 30,4 33,5 15,2 44 63 78 988 997 1.014 8,7 61,8 0,0
06/2018 12,6 17,7 21,3 22,1 23,0 26,4 30,4 17,8 54 66 78 984 1.011 1.020 8,1 54,2 35,4
05/2018 8,6 13,5 17,9 17,8 16,9 22,4 26,9 18,3 49 70 85 1.009 1.013 1.017 7,5 44,4 6,2
Tots els anys disponibles
2018 2,8 13,6 27,2 17,3 7,4 21,5 35,3 32,5 41 69 90 984 1.013 1.032 OSO 8,0 85,1 705,8
2017 3,8 14,1 26,7 18,4 8,4 22,9 34,6 30,8 41 68 89 998 1.017 1.033 OSO 2,6 96,0 223,0
2016
Temperatura (°C)
Humitat relativa (%)
Velocitat del vent i ràfega màxima (km/h)
Direcció del vent (°)
Pressió (hPa)
Precipitació (mm)
Nota sobre les dades: s'avisa a l'usuari de la provisionalitat i no oficialitat d'aquestes dades
Logo AVAMET blanc
Web allotjada a Sollutia
Llicència de Creative CommonsLa web d'AVAMET i els seus continguts estan subjectes a una llicència de
Reconeixement - No Comercial - Compartir igual
Properes estacions: Catadau - Urb. Lloma Molina (Inforatge), Altea - Club Nàutic d'Altea (Soci), Ares del Maestrat (Ajuntament Soci),      - - - - -      Últimes estacions: Ontinyent - El Pilar (Soci), Asp - Poliesportiu (Soci), Jacarilla - centro (MeteOrihuela), Elx - Maitino/Vallverda/Velarde/Matola/Ferriol (Soci TiempoElche.com) - - -